sensor_id;sensor_type;location;lat;lon;timestamp;pressure;altitude;pressure_sealevel;temperature;humidity
55733;BME280;41637;52.364;9.910;2023-04-07T00:00:33;100940.32;;;3.44;65.98
55733;BME280;41637;52.364;9.910;2023-04-07T00:03:00;100939.64;;;3.44;66.09
55733;BME280;41637;52.364;9.910;2023-04-07T00:05:27;100943.14;;;3.44;66.11
55733;BME280;41637;52.364;9.910;2023-04-07T00:07:54;100945.73;;;3.44;65.73
55733;BME280;41637;52.364;9.910;2023-04-07T00:10:23;100944.48;;;3.44;65.74
55733;BME280;41637;52.364;9.910;2023-04-07T00:12:50;100942.03;;;3.44;65.52
55733;BME280;41637;52.364;9.910;2023-04-07T00:15:17;100943.44;;;3.44;65.44
55733;BME280;41637;52.364;9.910;2023-04-07T00:17:44;100941.36;;;3.42;65.29
55733;BME280;41637;52.364;9.910;2023-04-07T00:20:11;100937.52;;;3.38;65.64
55733;BME280;41637;52.364;9.910;2023-04-07T00:22:37;100937.15;;;3.33;65.76
55733;BME280;41637;52.364;9.910;2023-04-07T00:25:05;100939.39;;;3.30;66.22
55733;BME280;41637;52.364;9.910;2023-04-07T00:27:32;100938.08;;;3.26;66.25
55733;BME280;41637;52.364;9.910;2023-04-07T00:29:59;100939.43;;;3.24;66.37
55733;BME280;41637;52.364;9.910;2023-04-07T00:32:25;100941.27;;;3.23;65.69
55733;BME280;41637;52.364;9.910;2023-04-07T00:34:52;100939.15;;;3.21;65.95
55733;BME280;41637;52.364;9.910;2023-04-07T00:37:18;100937.92;;;3.19;65.58
55733;BME280;41637;52.364;9.910;2023-04-07T00:39:45;100938.16;;;3.16;66.01
55733;BME280;41637;52.364;9.910;2023-04-07T00:42:12;100938.80;;;3.13;66.06
55733;BME280;41637;52.364;9.910;2023-04-07T00:44:38;100938.52;;;3.07;65.84
55733;BME280;41637;52.364;9.910;2023-04-07T00:47:05;100937.60;;;3.01;65.96
55733;BME280;41637;52.364;9.910;2023-04-07T00:49:32;100934.36;;;2.93;65.95
55733;BME280;41637;52.364;9.910;2023-04-07T00:52:00;100934.77;;;2.88;66.40
55733;BME280;41637;52.364;9.910;2023-04-07T00:54:26;100935.34;;;2.83;66.63
55733;BME280;41637;52.364;9.910;2023-04-07T00:56:56;100937.80;;;2.78;66.78
55733;BME280;41637;52.364;9.910;2023-04-07T00:59:23;100934.23;;;2.72;66.88
55733;BME280;41637;52.364;9.910;2023-04-07T01:02:36;100937.31;;;2.69;66.78
55733;BME280;41637;52.364;9.910;2023-04-07T01:05:22;100936.29;;;2.64;66.99
55733;BME280;41637;52.364;9.910;2023-04-07T01:11:09;100928.29;;;2.54;67.50
55733;BME280;41637;52.364;9.910;2023-04-07T01:13:45;100923.07;;;2.49;67.68
55733;BME280;41637;52.364;9.910;2023-04-07T01:16:21;100921.70;;;2.44;67.76
55733;BME280;41637;52.364;9.910;2023-04-07T01:18:53;100920.27;;;2.40;67.74
55733;BME280;41637;52.364;9.910;2023-04-07T01:21:21;100920.81;;;2.35;67.87
55733;BME280;41637;52.364;9.910;2023-04-07T01:24:04;100918.11;;;2.29;68.15
55733;BME280;41637;52.364;9.910;2023-04-07T01:26:38;100914.23;;;2.23;68.85
55733;BME280;41637;52.364;9.910;2023-04-07T01:29:36;100920.89;;;2.18;69.05
55733;BME280;41637;52.364;9.910;2023-04-07T01:32:09;100916.97;;;2.12;69.42
55733;BME280;41637;52.364;9.910;2023-04-07T01:34:37;100917.13;;;2.05;69.63
55733;BME280;41637;52.364;9.910;2023-04-07T01:37:05;100916.13;;;2.00;70.17
55733;BME280;41637;52.364;9.910;2023-04-07T01:39:33;100918.68;;;1.96;70.39
55733;BME280;41637;52.364;9.910;2023-04-07T01:42:02;100919.02;;;1.93;70.56
55733;BME280;41637;52.364;9.910;2023-04-07T01:44:31;100919.04;;;1.91;70.44
55733;BME280;41637;52.364;9.910;2023-04-07T01:46:59;100914.73;;;1.88;70.66
55733;BME280;41637;52.364;9.910;2023-04-07T01:49:27;100915.85;;;1.87;70.54
55733;BME280;41637;52.364;9.910;2023-04-07T01:51:56;100919.11;;;1.88;70.41
55733;BME280;41637;52.364;9.910;2023-04-07T01:54:24;100914.36;;;1.88;70.55
55733;BME280;41637;52.364;9.910;2023-04-07T01:56:51;100915.72;;;1.89;70.57
55733;BME280;41637;52.364;9.910;2023-04-07T01:59:18;100919.19;;;1.89;70.74
55733;BME280;41637;52.364;9.910;2023-04-07T02:01:44;100917.48;;;1.88;70.97
55733;BME280;41637;52.364;9.910;2023-04-07T02:07:11;100916.77;;;1.84;71.30
55733;BME280;41637;52.364;9.910;2023-04-07T02:09:41;100920.34;;;1.80;71.25
55733;BME280;41637;52.364;9.910;2023-04-07T02:12:11;100924.89;;;1.78;71.47
55733;BME280;41637;52.364;9.910;2023-04-07T02:14:38;100926.25;;;1.76;71.38
55733;BME280;41637;52.364;9.910;2023-04-07T02:17:05;100921.35;;;1.74;71.40
55733;BME280;41637;52.364;9.910;2023-04-07T02:19:33;100918.53;;;1.72;71.67
55733;BME280;41637;52.364;9.910;2023-04-07T02:22:04;100922.42;;;1.69;71.81
55733;BME280;41637;52.364;9.910;2023-04-07T02:24:32;100923.05;;;1.65;72.17
55733;BME280;41637;52.364;9.910;2023-04-07T02:26:58;100924.79;;;1.62;72.20
55733;BME280;41637;52.364;9.910;2023-04-07T02:29:27;100926.73;;;1.59;72.52
55733;BME280;41637;52.364;9.910;2023-04-07T02:31:55;100923.71;;;1.58;72.47
55733;BME280;41637;52.364;9.910;2023-04-07T02:34:21;100919.69;;;1.56;72.51
55733;BME280;41637;52.364;9.910;2023-04-07T02:36:48;100923.20;;;1.55;72.49
55733;BME280;41637;52.364;9.910;2023-04-07T02:39:15;100919.23;;;1.55;72.52
55733;BME280;41637;52.364;9.910;2023-04-07T02:41:41;100920.79;;;1.55;72.87
55733;BME280;41637;52.364;9.910;2023-04-07T02:44:08;100925.95;;;1.54;72.75
55733;BME280;41637;52.364;9.910;2023-04-07T02:46:35;100925.88;;;1.52;73.08
55733;BME280;41637;52.364;9.910;2023-04-07T02:49:02;100924.21;;;1.51;73.08
55733;BME280;41637;52.364;9.910;2023-04-07T02:51:28;100923.77;;;1.50;73.17
55733;BME280;41637;52.364;9.910;2023-04-07T02:53:55;100926.84;;;1.51;73.19
55733;BME280;41637;52.364;9.910;2023-04-07T02:56:22;100924.59;;;1.51;73.38
55733;BME280;41637;52.364;9.910;2023-04-07T02:58:49;100927.84;;;1.52;73.41
55733;BME280;41637;52.364;9.910;2023-04-07T03:01:15;100928.33;;;1.52;73.19
55733;BME280;41637;52.364;9.910;2023-04-07T03:03:42;100926.04;;;1.52;73.11
55733;BME280;41637;52.364;9.910;2023-04-07T03:06:10;100926.14;;;1.51;73.34
55733;BME280;41637;52.364;9.910;2023-04-07T03:08:37;100924.66;;;1.50;73.13
55733;BME280;41637;52.364;9.910;2023-04-07T03:11:04;100924.24;;;1.48;73.03
55733;BME280;41637;52.364;9.910;2023-04-07T03:13:30;100923.71;;;1.46;73.21
55733;BME280;41637;52.364;9.910;2023-04-07T03:15:57;100922.26;;;1.44;73.03
55733;BME280;41637;52.364;9.910;2023-04-07T03:18:24;100928.04;;;1.41;73.23
55733;BME280;41637;52.364;9.910;2023-04-07T03:20:50;100928.94;;;1.39;73.21
55733;BME280;41637;52.364;9.910;2023-04-07T03:23:18;100927.88;;;1.36;73.47
55733;BME280;41637;52.364;9.910;2023-04-07T03:25:45;100927.91;;;1.34;73.57
55733;BME280;41637;52.364;9.910;2023-04-07T03:28:13;100928.89;;;1.30;73.62
55733;BME280;41637;52.364;9.910;2023-04-07T03:30:40;100933.77;;;1.27;73.66
55733;BME280;41637;52.364;9.910;2023-04-07T03:33:07;100926.64;;;1.25;73.84
55733;BME280;41637;52.364;9.910;2023-04-07T03:35:34;100926.73;;;1.20;73.84
55733;BME280;41637;52.364;9.910;2023-04-07T03:38:01;100925.08;;;1.17;73.98
55733;BME280;41637;52.364;9.910;2023-04-07T03:40:28;100920.67;;;1.13;73.99
55733;BME280;41637;52.364;9.910;2023-04-07T03:42:54;100925.22;;;1.10;74.26
55733;BME280;41637;52.364;9.910;2023-04-07T03:45:21;100927.38;;;1.09;74.40
55733;BME280;41637;52.364;9.910;2023-04-07T03:47:48;100929.41;;;1.07;74.58
55733;BME280;41637;52.364;9.910;2023-04-07T03:50:15;100929.91;;;1.05;74.43
55733;BME280;41637;52.364;9.910;2023-04-07T03:52:42;100931.45;;;1.03;74.62
55733;BME280;41637;52.364;9.910;2023-04-07T03:55:08;100933.14;;;1.01;74.77
55733;BME280;41637;52.364;9.910;2023-04-07T03:57:35;100932.33;;;1.00;74.79
55733;BME280;41637;52.364;9.910;2023-04-07T04:00:03;100934.21;;;0.98;74.70
55733;BME280;41637;52.364;9.910;2023-04-07T04:02:30;100936.09;;;0.96;74.78
55733;BME280;41637;52.364;9.910;2023-04-07T04:04:57;100936.25;;;0.94;74.86
55733;BME280;41637;52.364;9.910;2023-04-07T04:07:24;100940.50;;;0.93;74.82
55733;BME280;41637;52.364;9.910;2023-04-07T04:09:51;100940.28;;;0.91;74.84
55733;BME280;41637;52.364;9.910;2023-04-07T04:12:18;100944.15;;;0.88;74.93
55733;BME280;41637;52.364;9.910;2023-04-07T04:14:45;100946.04;;;0.86;75.00
55733;BME280;41637;52.364;9.910;2023-04-07T04:17:11;100947.38;;;0.85;75.06
55733;BME280;41637;52.364;9.910;2023-04-07T04:19:38;100948.91;;;0.82;75.18
55733;BME280;41637;52.364;9.910;2023-04-07T04:22:05;100944.05;;;0.79;75.22
55733;BME280;41637;52.364;9.910;2023-04-07T04:24:32;100943.75;;;0.76;75.17
55733;BME280;41637;52.364;9.910;2023-04-07T04:26:58;100940.98;;;0.73;75.37
55733;BME280;41637;52.364;9.910;2023-04-07T04:29:27;100940.75;;;0.72;75.32
55733;BME280;41637;52.364;9.910;2023-04-07T04:31:53;100941.75;;;0.73;75.47
55733;BME280;41637;52.364;9.910;2023-04-07T04:34:20;100946.64;;;0.72;75.31
55733;BME280;41637;52.364;9.910;2023-04-07T04:36:46;100947.96;;;0.71;75.20
55733;BME280;41637;52.364;9.910;2023-04-07T04:39:14;100945.36;;;0.68;75.09
55733;BME280;41637;52.364;9.910;2023-04-07T04:41:41;100949.95;;;0.67;75.22
55733;BME280;41637;52.364;9.910;2023-04-07T04:44:08;100952.15;;;0.66;75.23
55733;BME280;41637;52.364;9.910;2023-04-07T04:46:35;100958.45;;;0.63;75.19
55733;BME280;41637;52.364;9.910;2023-04-07T04:49:02;100957.20;;;0.60;75.37
55733;BME280;41637;52.364;9.910;2023-04-07T04:51:29;100962.65;;;0.59;75.41
55733;BME280;41637;52.364;9.910;2023-04-07T04:53:56;100966.69;;;0.59;75.57
55733;BME280;41637;52.364;9.910;2023-04-07T04:56:22;100966.50;;;0.59;75.67
55733;BME280;41637;52.364;9.910;2023-04-07T04:58:49;100974.30;;;0.60;75.74
55733;BME280;41637;52.364;9.910;2023-04-07T05:01:16;100969.85;;;0.61;75.86
55733;BME280;41637;52.364;9.910;2023-04-07T05:03:42;100970.50;;;0.64;75.88
55733;BME280;41637;52.364;9.910;2023-04-07T05:06:09;100966.77;;;0.68;75.89
55733;BME280;41637;52.364;9.910;2023-04-07T05:08:36;100963.17;;;0.72;75.86
55733;BME280;41637;52.364;9.910;2023-04-07T05:11:02;100968.34;;;0.78;75.89
55733;BME280;41637;52.364;9.910;2023-04-07T05:13:29;100975.45;;;0.84;75.87
55733;BME280;41637;52.364;9.910;2023-04-07T05:15:56;100977.64;;;0.90;75.61
55733;BME280;41637;52.364;9.910;2023-04-07T05:18:23;100976.00;;;0.96;75.40
55733;BME280;41637;52.364;9.910;2023-04-07T05:20:49;100971.09;;;1.02;75.25
55733;BME280;41637;52.364;9.910;2023-04-07T05:23:16;100973.59;;;1.08;75.12
55733;BME280;41637;52.364;9.910;2023-04-07T05:25:42;100976.42;;;1.15;74.91
55733;BME280;41637;52.364;9.910;2023-04-07T05:28:09;100977.88;;;1.22;74.87
55733;BME280;41637;52.364;9.910;2023-04-07T05:30:36;100974.98;;;1.29;74.59
55733;BME280;41637;52.364;9.910;2023-04-07T05:33:02;100972.59;;;1.35;74.38
55733;BME280;41637;52.364;9.910;2023-04-07T05:35:29;100977.47;;;1.42;74.31
55733;BME280;41637;52.364;9.910;2023-04-07T05:37:56;100977.08;;;1.50;74.15
55733;BME280;41637;52.364;9.910;2023-04-07T05:40:23;100977.56;;;1.58;74.08
55733;BME280;41637;52.364;9.910;2023-04-07T05:42:50;100980.09;;;1.67;73.81
55733;BME280;41637;52.364;9.910;2023-04-07T05:45:16;100978.61;;;1.75;73.56
55733;BME280;41637;52.364;9.910;2023-04-07T05:47:43;100978.19;;;1.84;73.46
55733;BME280;41637;52.364;9.910;2023-04-07T05:50:12;100983.52;;;1.94;73.32
55733;BME280;41637;52.364;9.910;2023-04-07T05:52:39;100985.43;;;2.04;73.01
55733;BME280;41637;52.364;9.910;2023-04-07T05:55:06;100982.43;;;2.16;72.74
55733;BME280;41637;52.364;9.910;2023-04-07T05:57:34;100985.80;;;2.27;72.28
55733;BME280;41637;52.364;9.910;2023-04-07T06:00:01;100988.17;;;2.37;72.44
55733;BME280;41637;52.364;9.910;2023-04-07T06:02:27;100984.96;;;2.50;72.31
55733;BME280;41637;52.364;9.910;2023-04-07T06:04:54;100990.90;;;2.64;72.14
55733;BME280;41637;52.364;9.910;2023-04-07T06:07:21;100994.59;;;2.80;72.04
55733;BME280;41637;52.364;9.910;2023-04-07T06:09:48;100998.63;;;2.96;71.54
55733;BME280;41637;52.364;9.910;2023-04-07T06:12:14;100996.57;;;3.11;71.16
55733;BME280;41637;52.364;9.910;2023-04-07T06:14:42;100998.17;;;3.24;70.73
55733;BME280;41637;52.364;9.910;2023-04-07T06:17:08;101001.68;;;3.37;70.11
55733;BME280;41637;52.364;9.910;2023-04-07T06:19:35;101007.55;;;3.52;69.88
55733;BME280;41637;52.364;9.910;2023-04-07T06:22:02;101003.87;;;3.65;69.20
55733;BME280;41637;52.364;9.910;2023-04-07T06:24:28;101005.77;;;3.76;68.45
55733;BME280;41637;52.364;9.910;2023-04-07T06:26:55;101009.77;;;3.88;67.50
55733;BME280;41637;52.364;9.910;2023-04-07T06:29:22;101010.95;;;3.99;67.63
55733;BME280;41637;52.364;9.910;2023-04-07T06:31:48;101013.79;;;4.11;67.37
55733;BME280;41637;52.364;9.910;2023-04-07T06:34:15;101015.30;;;4.23;66.28
55733;BME280;41637;52.364;9.910;2023-04-07T06:36:42;101015.41;;;4.34;66.01
55733;BME280;41637;52.364;9.910;2023-04-07T06:39:09;101015.44;;;4.47;65.75
55733;BME280;41637;52.364;9.910;2023-04-07T06:41:35;101014.24;;;4.59;65.18
55733;BME280;41637;52.364;9.910;2023-04-07T06:44:04;101018.48;;;4.67;64.20
55733;BME280;41637;52.364;9.910;2023-04-07T06:46:31;101023.45;;;4.73;63.98
55733;BME280;41637;52.364;9.910;2023-04-07T06:48:57;101019.63;;;4.79;63.86
55733;BME280;41637;52.364;9.910;2023-04-07T06:51:24;101020.10;;;4.81;63.36
55733;BME280;41637;52.364;9.910;2023-04-07T06:53:51;101019.65;;;4.84;63.32
55733;BME280;41637;52.364;9.910;2023-04-07T06:56:19;101022.79;;;4.86;63.25
55733;BME280;41637;52.364;9.910;2023-04-07T06:58:46;101021.70;;;4.91;63.25
55733;BME280;41637;52.364;9.910;2023-04-07T07:01:13;101025.43;;;4.97;63.04
55733;BME280;41637;52.364;9.910;2023-04-07T07:03:39;101033.80;;;5.04;63.08
55733;BME280;41637;52.364;9.910;2023-04-07T07:06:06;101033.14;;;5.11;62.66
55733;BME280;41637;52.364;9.910;2023-04-07T07:08:33;101029.45;;;5.26;62.73
55733;BME280;41637;52.364;9.910;2023-04-07T07:10:59;101033.09;;;5.43;62.46
55733;BME280;41637;52.364;9.910;2023-04-07T07:13:27;101035.92;;;5.60;61.94
55733;BME280;41637;52.364;9.910;2023-04-07T07:15:53;101038.96;;;5.78;61.52
55733;BME280;41637;52.364;9.910;2023-04-07T07:18:21;101037.90;;;5.98;61.19
55733;BME280;41637;52.364;9.910;2023-04-07T07:20:47;101039.30;;;6.18;59.89
55733;BME280;41637;52.364;9.910;2023-04-07T07:23:14;101043.14;;;6.34;58.78
55733;BME280;41637;52.364;9.910;2023-04-07T07:25:40;101043.77;;;6.48;58.77
55733;BME280;41637;52.364;9.910;2023-04-07T07:28:07;101045.05;;;6.67;58.09
55733;BME280;41637;52.364;9.910;2023-04-07T07:30:34;101045.48;;;6.91;58.19
55733;BME280;41637;52.364;9.910;2023-04-07T07:33:01;101047.09;;;7.15;57.11
55733;BME280;41637;52.364;9.910;2023-04-07T07:35:28;101052.70;;;7.36;56.46
55733;BME280;41637;52.364;9.910;2023-04-07T07:37:55;101054.21;;;7.61;55.91
55733;BME280;41637;52.364;9.910;2023-04-07T07:40:21;101058.66;;;7.84;54.41
55733;BME280;41637;52.364;9.910;2023-04-07T07:42:48;101058.76;;;8.02;53.25
55733;BME280;41637;52.364;9.910;2023-04-07T07:45:14;101056.98;;;8.20;52.99
55733;BME280;41637;52.364;9.910;2023-04-07T07:47:42;101052.45;;;8.35;51.71
55733;BME280;41637;52.364;9.910;2023-04-07T07:50:09;101059.40;;;8.46;50.62
55733;BME280;41637;52.364;9.910;2023-04-07T07:52:36;101059.73;;;8.58;50.26
55733;BME280;41637;52.364;9.910;2023-04-07T07:55:03;101060.59;;;8.75;49.94
55733;BME280;41637;52.364;9.910;2023-04-07T07:57:29;101060.57;;;8.90;49.90
55733;BME280;41637;52.364;9.910;2023-04-07T07:59:57;101063.16;;;9.07;50.12
55733;BME280;41637;52.364;9.910;2023-04-07T08:02:23;101063.91;;;9.25;49.95
55733;BME280;41637;52.364;9.910;2023-04-07T08:04:56;101070.52;;;9.45;49.31
55733;BME280;41637;52.364;9.910;2023-04-07T08:07:23;101071.96;;;9.64;48.37
55733;BME280;41637;52.364;9.910;2023-04-07T08:09:50;101073.68;;;9.71;46.84
55733;BME280;41637;52.364;9.910;2023-04-07T08:12:17;101076.91;;;9.75;45.95
55733;BME280;41637;52.364;9.910;2023-04-07T08:14:44;101074.03;;;9.73;45.47
55733;BME280;41637;52.364;9.910;2023-04-07T08:17:11;101072.36;;;9.73;45.49
55733;BME280;41637;52.364;9.910;2023-04-07T08:19:38;101074.61;;;9.72;45.42
55733;BME280;41637;52.364;9.910;2023-04-07T08:22:05;101076.52;;;9.79;45.74
55733;BME280;41637;52.364;9.910;2023-04-07T08:24:31;101075.67;;;9.90;45.36
55733;BME280;41637;52.364;9.910;2023-04-07T08:26:58;101079.92;;;9.99;45.29
55733;BME280;41637;52.364;9.910;2023-04-07T08:29:24;101076.80;;;10.09;44.57
55733;BME280;41637;52.364;9.910;2023-04-07T08:31:51;101078.48;;;10.15;44.47
55733;BME280;41637;52.364;9.910;2023-04-07T08:34:18;101077.23;;;10.22;44.33
55733;BME280;41637;52.364;9.910;2023-04-07T08:36:46;101076.48;;;10.32;44.82
55733;BME280;41637;52.364;9.910;2023-04-07T08:39:13;101076.75;;;10.43;44.30
55733;BME280;41637;52.364;9.910;2023-04-07T08:41:40;101078.03;;;10.51;43.94
55733;BME280;41637;52.364;9.910;2023-04-07T08:44:09;101081.17;;;10.59;43.49
55733;BME280;41637;52.364;9.910;2023-04-07T08:46:38;101081.16;;;10.74;44.04
55733;BME280;41637;52.364;9.910;2023-04-07T08:49:08;101085.78;;;10.90;43.53
55733;BME280;41637;52.364;9.910;2023-04-07T08:51:37;101078.12;;;11.04;43.76
55733;BME280;41637;52.364;9.910;2023-04-07T08:54:10;101076.63;;;11.22;42.92
55733;BME280;41637;52.364;9.910;2023-04-07T08:56:38;101081.75;;;11.35;42.18
55733;BME280;41637;52.364;9.910;2023-04-07T08:59:08;101081.07;;;11.46;42.32
55733;BME280;41637;52.364;9.910;2023-04-07T09:01:35;101085.27;;;11.50;39.91
55733;BME280;41637;52.364;9.910;2023-04-07T09:04:04;101083.02;;;11.51;38.26
55733;BME280;41637;52.364;9.910;2023-04-07T09:06:31;101082.17;;;11.55;38.21
55733;BME280;41637;52.364;9.910;2023-04-07T09:08:58;101084.02;;;11.61;37.93
55733;BME280;41637;52.364;9.910;2023-04-07T09:11:26;101083.98;;;11.64;37.73
55733;BME280;41637;52.364;9.910;2023-04-07T09:13:53;101085.20;;;11.69;37.68
55733;BME280;41637;52.364;9.910;2023-04-07T09:16:21;101082.45;;;11.76;38.45
55733;BME280;41637;52.364;9.910;2023-04-07T09:18:49;101087.10;;;11.86;38.55
55733;BME280;41637;52.364;9.910;2023-04-07T09:21:16;101085.14;;;11.97;38.73
55733;BME280;41637;52.364;9.910;2023-04-07T09:23:42;101089.61;;;12.06;37.31
55733;BME280;41637;52.364;9.910;2023-04-07T09:26:25;101085.36;;;12.06;37.39
55733;BME280;41637;52.364;9.910;2023-04-07T09:29:00;101085.75;;;12.01;36.84
55733;BME280;41637;52.364;9.910;2023-04-07T09:31:48;101081.50;;;12.05;37.17
55733;BME280;41637;52.364;9.910;2023-04-07T09:34:26;101085.77;;;12.10;37.43
55733;BME280;41637;52.364;9.910;2023-04-07T09:36:53;101085.59;;;12.12;37.69
55733;BME280;41637;52.364;9.910;2023-04-07T09:39:20;101089.20;;;12.19;37.94
55733;BME280;41637;52.364;9.910;2023-04-07T09:41:47;101087.44;;;12.18;37.19
55733;BME280;41637;52.364;9.910;2023-04-07T09:44:14;101084.20;;;12.25;37.61
55733;BME280;41637;52.364;9.910;2023-04-07T09:46:52;101083.19;;;12.23;37.18
55733;BME280;41637;52.364;9.910;2023-04-07T09:49:20;101087.21;;;12.39;38.44
55733;BME280;41637;52.364;9.910;2023-04-07T09:52:01;101083.14;;;12.62;38.03
55733;BME280;41637;52.364;9.910;2023-04-07T09:54:37;101085.04;;;12.90;38.29
55733;BME280;41637;52.364;9.910;2023-04-07T09:57:08;101087.55;;;13.08;37.44
55733;BME280;41637;52.364;9.910;2023-04-07T09:59:44;101081.23;;;13.18;36.68
55733;BME280;41637;52.364;9.910;2023-04-07T10:02:11;101081.34;;;13.20;36.35
55733;BME280;41637;52.364;9.910;2023-04-07T10:04:38;101080.31;;;13.19;36.79
55733;BME280;41637;52.364;9.910;2023-04-07T10:07:06;101090.13;;;13.36;37.78
55733;BME280;41637;52.364;9.910;2023-04-07T10:09:32;101086.32;;;13.54;37.06
55733;BME280;41637;52.364;9.910;2023-04-07T10:11:59;101086.95;;;13.65;36.22
55733;BME280;41637;52.364;9.910;2023-04-07T10:14:30;101085.98;;;13.69;35.82
55733;BME280;41637;52.364;9.910;2023-04-07T10:16:58;101080.67;;;13.77;35.67
55733;BME280;41637;52.364;9.910;2023-04-07T10:19:29;101082.16;;;13.93;36.11
55733;BME280;41637;52.364;9.910;2023-04-07T10:21:57;101088.48;;;14.10;36.12
55733;BME280;41637;52.364;9.910;2023-04-07T10:27:03;101091.14;;;14.29;35.03
55733;BME280;41637;52.364;9.910;2023-04-07T10:29:40;101088.00;;;14.35;34.25
55733;BME280;41637;52.364;9.910;2023-04-07T10:32:08;101091.18;;;14.37;33.95
55733;BME280;41637;52.364;9.910;2023-04-07T10:34:55;101090.35;;;14.45;34.79
55733;BME280;41637;52.364;9.910;2023-04-07T10:37:24;101092.61;;;14.49;34.03
55733;BME280;41637;52.364;9.910;2023-04-07T10:42:44;101089.63;;;14.70;33.87
55733;BME280;41637;52.364;9.910;2023-04-07T10:45:13;101087.95;;;14.80;33.17
55733;BME280;41637;52.364;9.910;2023-04-07T10:50:25;101097.00;;;14.87;33.24
55733;BME280;41637;52.364;9.910;2023-04-07T10:53:11;101096.62;;;14.96;33.04
55733;BME280;41637;52.364;9.910;2023-04-07T10:58:19;101094.94;;;15.02;32.28
55733;BME280;41637;52.364;9.910;2023-04-07T11:03:27;101093.52;;;15.11;31.99
55733;BME280;41637;52.364;9.910;2023-04-07T11:08:37;101097.00;;;15.15;31.63
55733;BME280;41637;52.364;9.910;2023-04-07T11:11:05;101095.13;;;15.17;31.65
55733;BME280;41637;52.364;9.910;2023-04-07T11:13:49;101093.36;;;15.18;31.46
55733;BME280;41637;52.364;9.910;2023-04-07T11:16:18;101090.11;;;15.05;31.33
55733;BME280;41637;52.364;9.910;2023-04-07T11:18:46;101090.33;;;15.01;32.12
55733;BME280;41637;52.364;9.910;2023-04-07T11:21:17;101088.54;;;15.11;32.70
55733;BME280;41637;52.364;9.910;2023-04-07T11:23:45;101092.59;;;15.25;32.11
55733;BME280;41637;52.364;9.910;2023-04-07T11:26:14;101094.91;;;15.38;31.87
55733;BME280;41637;52.364;9.910;2023-04-07T11:28:52;101089.67;;;15.51;32.05
55733;BME280;41637;52.364;9.910;2023-04-07T11:31:27;101086.95;;;15.65;31.93
55733;BME280;41637;52.364;9.910;2023-04-07T11:33:56;101089.69;;;15.81;32.48
55733;BME280;41637;52.364;9.910;2023-04-07T11:36:33;101084.05;;;15.90;31.81
55733;BME280;41637;52.364;9.910;2023-04-07T11:39:01;101083.09;;;15.91;31.83
55733;BME280;41637;52.364;9.910;2023-04-07T11:41:30;101086.88;;;16.00;32.35
55733;BME280;41637;52.364;9.910;2023-04-07T11:44:09;101092.39;;;16.10;32.58
55733;BME280;41637;52.364;9.910;2023-04-07T11:46:54;101090.37;;;16.28;32.50
55733;BME280;41637;52.364;9.910;2023-04-07T11:49:22;101087.14;;;16.43;31.83
55733;BME280;41637;52.364;9.910;2023-04-07T11:51:57;101084.27;;;16.50;31.89
55733;BME280;41637;52.364;9.910;2023-04-07T11:54:24;101088.40;;;16.67;31.72
55733;BME280;41637;52.364;9.910;2023-04-07T11:56:51;101082.77;;;16.94;31.12
55733;BME280;41637;52.364;9.910;2023-04-07T11:59:24;101085.79;;;17.28;29.89
55733;BME280;41637;52.364;9.910;2023-04-07T12:01:51;101085.45;;;17.68;29.93
55733;BME280;41637;52.364;9.910;2023-04-07T12:04:23;101089.73;;;18.18;28.78
55733;BME280;41637;52.364;9.910;2023-04-07T12:06:50;101089.45;;;18.60;27.80
55733;BME280;41637;52.364;9.910;2023-04-07T12:09:28;101090.11;;;18.94;26.95
55733;BME280;41637;52.364;9.910;2023-04-07T12:11:56;101092.42;;;19.33;26.53
55733;BME280;41637;52.364;9.910;2023-04-07T12:14:24;101085.61;;;19.65;26.03
55733;BME280;41637;52.364;9.910;2023-04-07T12:16:51;101086.26;;;19.95;26.32
55733;BME280;41637;52.364;9.910;2023-04-07T12:19:18;101091.61;;;20.18;25.68
55733;BME280;41637;52.364;9.910;2023-04-07T12:21:45;101094.85;;;20.58;25.61
55733;BME280;41637;52.364;9.910;2023-04-07T12:24:12;101092.64;;;20.93;25.40
55733;BME280;41637;52.364;9.910;2023-04-07T12:26:38;101091.28;;;21.24;25.03
55733;BME280;41637;52.364;9.910;2023-04-07T12:29:05;101087.73;;;21.70;24.93
55733;BME280;41637;52.364;9.910;2023-04-07T12:31:32;101089.08;;;21.94;23.92
55733;BME280;41637;52.364;9.910;2023-04-07T12:34:01;101086.57;;;22.33;23.79
55733;BME280;41637;52.364;9.910;2023-04-07T12:36:28;101086.64;;;23.01;23.25
55733;BME280;41637;52.364;9.910;2023-04-07T12:38:55;101084.40;;;24.01;21.96
55733;BME280;41637;52.364;9.910;2023-04-07T12:41:23;101083.66;;;25.08;21.33
55733;BME280;41637;52.364;9.910;2023-04-07T12:43:50;101081.89;;;25.90;20.38
55733;BME280;41637;52.364;9.910;2023-04-07T12:46:18;101081.94;;;26.55;19.45
55733;BME280;41637;52.364;9.910;2023-04-07T12:48:46;101083.90;;;27.07;19.42
55733;BME280;41637;52.364;9.910;2023-04-07T12:51:13;101083.86;;;27.53;18.96
55733;BME280;41637;52.364;9.910;2023-04-07T12:53:40;101081.45;;;27.89;18.69
55733;BME280;41637;52.364;9.910;2023-04-07T12:56:07;101085.04;;;28.19;18.32
55733;BME280;41637;52.364;9.910;2023-04-07T12:58:33;101082.53;;;28.66;18.23
55733;BME280;41637;52.364;9.910;2023-04-07T13:01:00;101083.83;;;29.20;17.49
55733;BME280;41637;52.364;9.910;2023-04-07T13:03:27;101080.99;;;29.53;16.70
55733;BME280;41637;52.364;9.910;2023-04-07T13:05:54;101079.13;;;30.12;16.92
55733;BME280;41637;52.364;9.910;2023-04-07T13:08:21;101074.21;;;30.62;15.87
55733;BME280;41637;52.364;9.910;2023-04-07T13:10:48;101078.85;;;30.95;16.00
55733;BME280;41637;52.364;9.910;2023-04-07T13:13:14;101079.45;;;31.27;15.54
55733;BME280;41637;52.364;9.910;2023-04-07T13:15:41;101081.28;;;31.41;15.17
55733;BME280;41637;52.364;9.910;2023-04-07T13:18:07;101076.42;;;31.18;15.17
55733;BME280;41637;52.364;9.910;2023-04-07T13:20:34;101077.16;;;30.92;15.26
55733;BME280;41637;52.364;9.910;2023-04-07T13:23:01;101081.88;;;31.11;15.41
55733;BME280;41637;52.364;9.910;2023-04-07T13:25:35;101075.12;;;31.23;15.43